Spokane International Airport

Airport
ICAO code: 
KGEG
Summary
ICAO Region: 
NAM
Territory: 
Location: 
Spokane, Washington,
Elevation: 
2376 ft
Coordinates: 
Aerial View: 
47° 37' 32.394" N, 117° 32' 12.057" W
Airport CFIT: 
Altimeter Temperature Error Correction
Airport WX: 
Mountain Waves
Metar
Observation
KGEG 021453Z 22010KT 10SM BKN100 BKN230 08/04 A3001 RMK AO2 SLP165 T00780039 51009
Station
Spokane, Spokane International Airport
Date/Time
2021-12-02 14:53:00
Wind direction
220°
Wind speed
10 kts
Lowest cloud amount
broken clouds
Temperature
7.8°C
Dew point
3.9°C
Humidity
76%
Weather condition
n/a

Description

Spokane International Airport is a public use airport located 8 km west of the central business district of Spokane, in Spokane county, Washington.

Climatology

Dry-summer, humid continental climate (Köppen climate classification Dsb), with long, snowy winters and warm, dry summers.

Runways

Designator Length Width Surface Rops
7/25 2499 46 ASP Yes/Yes
3/21 2743 46 ASP Yes/Yes
Airport map: 
Aerial View: 

SKYbrary Partners:

Safety knowledge contributed by: